Monday, August 20, 2018, 7:45 AM CDT
Back to Local

KPWK, Chicago Executive Airport

Location: Wheeling, IL, United States Lat: 42.117
Local Time: 7:45 AM CDT (12:45 GMT) Lon: -87.9
Time Zone: US/Central Elev: 646 ft

Show me the last for .
Show Coded

Time T Td Feel RH Dir Speed Gust Alt SLP Vis Weather Sky Remarks
2018-08-20 06:52 73 64 77 73 100° 6 - 29.93 29.92 10 CLR 6-hr Min Temp (7am): 72.0°F
6-hr Max Temp (7am): 75.9°F
2018-08-20 05:52 73 64 77 73 120° 5 - 29.93 29.92 10 CLR None
2018-08-20 04:52 73 64 77 73 110° 5 - 29.94 29.92 10 CLR None
2018-08-20 03:52 73 65 77 75 100° 5 - 29.94 29.93 10 CLR None
2018-08-20 02:52 72 65 76 78 130° 3 - 29.95 29.93 10 CLR None
2018-08-20 01:52 75 66 78 73 120° 6 - 29.96 29.94 10 CLR None
2018-08-20 00:52 75 69 79 81 100° 6 - 29.96 29.94 10 CLR 6-hr Min Temp (1am): 75.0°F
6-hr Max Temp (1am): 78.1°F
24-hr Min Temp (1am): 66.9°F
24-hr Max Temp (1am): 84.0°F
2018-08-19 23:52 76 69 79 79 100° 6 - 29.98 29.96 10 CLR None
2018-08-19 22:52 76 69 79 79 90° 5 - 29.97 29.96 10 CLR None
2018-08-19 21:52 76 68 79 76 100° 5 - 29.98 29.96 10 FEW070 None
2018-08-19 20:52 76 67 79 73 80° 3 - 29.97 29.96 10 SCT065 None
2018-08-19 19:52 77 67 80 71 80° 5 - 29.97 29.95 10 BKN075 None
2018-08-19 18:52 77 66 80 68 70° 8 - 29.96 29.94 10 CLR 6-hr Min Temp (7pm): 77.0°F
6-hr Max Temp (7pm): 84.0°F
2018-08-19 17:52 79 66 82 64 80° 7 - 29.95 29.94 10 CLR None
2018-08-19 16:52 81 65 83 58 60° 10 - 29.96 29.94 10 CLR None
2018-08-19 15:52 83 65 85 54 60° 10 - 29.97 29.96 10 CLR None
2018-08-19 14:52 83 64 85 53 70° 10 - 29.99 29.97 10 CLR None
2018-08-19 13:52 84 66 87 54 100° 8 - 29.99 29.98 10 CLR None
2018-08-19 12:52 82 65 84 56 120° 8 - 30.01 30.00 10 FEW040 6-hr Min Temp (1pm): 68.0°F
6-hr Max Temp (1pm): 82.9°F
2018-08-19 11:52 83 66 86 56 - Calm - 30.02 30.01 10 FEW030 None
2018-08-19 10:52 80 65 82 60 100° 5 - 30.01 30.00 10 FEW032 BKN070 None
2018-08-19 09:52 79 67 82 66 80° 3 - 30.01 30.00 10 FEW065 None
2018-08-19 08:52 77 67 80 71 50° 6 - 30.01 30.00 10 CLR None
2018-08-19 07:52 72 66 76 81 10° 3 - 30.00 29.99 9 CLR None

Support USWX by starting your Amazon purchase here.